createdAt,value
2023-06-19T00:00:53.603Z,97486.09
2023-06-19T00:03:22.942Z,97479.78
2023-06-19T00:05:55.868Z,97485.22
2023-06-19T00:08:30.635Z,97484.41
2023-06-19T00:11:01.437Z,97497.41
2023-06-19T00:13:35.201Z,97495.00
2023-06-19T00:16:08.191Z,97485.06
2023-06-19T00:18:42.228Z,97481.22
2023-06-19T00:21:10.590Z,97489.69
2023-06-19T00:23:41.011Z,97483.75
2023-06-19T00:26:18.421Z,97487.22
2023-06-19T00:28:46.778Z,97490.41
2023-06-19T00:31:17.894Z,97492.38
2023-06-19T00:33:48.491Z,97497.88
2023-06-19T00:36:28.249Z,97504.56
2023-06-19T00:39:05.824Z,97501.00
2023-06-19T00:41:35.957Z,97504.09
2023-06-19T00:44:04.024Z,97508.78
2023-06-19T00:46:34.495Z,97508.31
2023-06-19T00:49:06.837Z,97510.28
2023-06-19T00:51:44.711Z,97522.09
2023-06-19T00:54:16.823Z,97518.56
2023-06-19T00:56:47.216Z,97511.88
2023-06-19T00:59:21.998Z,97519.34
2023-06-19T01:01:52.599Z,97519.72
2023-06-19T01:04:24.052Z,97519.63
2023-06-19T01:07:14.777Z,97524.34
2023-06-19T01:09:49.162Z,97521.94
2023-06-19T01:12:29.241Z,97529.75
2023-06-19T01:15:02.570Z,97524.59
2023-06-19T01:17:31.433Z,97519.09
2023-06-19T01:20:12.520Z,97525.75
2023-06-19T01:22:49.506Z,97518.66
2023-06-19T01:25:21.197Z,97537.06
2023-06-19T01:27:49.432Z,97552.44
2023-06-19T01:30:19.356Z,97572.50
2023-06-19T01:32:57.206Z,97593.22
2023-06-19T01:35:32.018Z,97610.28
2023-06-19T01:38:03.079Z,97608.03
2023-06-19T01:40:36.531Z,97610.16
2023-06-19T01:43:05.886Z,97616.06
2023-06-19T01:45:34.278Z,97617.47
2023-06-19T01:48:05.146Z,97611.22
2023-06-19T01:50:35.848Z,97611.06
2023-06-19T01:53:08.520Z,97610.78
2023-06-19T01:55:38.987Z,97614.56
2023-06-19T01:58:18.576Z,97619.03
2023-06-19T02:00:46.910Z,97612.28
2023-06-19T02:03:20.120Z,97604.38
2023-06-19T02:05:53.477Z,97604.63
2023-06-19T02:08:22.790Z,97597.06
2023-06-19T02:10:53.512Z,97603.38
2023-06-19T02:13:21.716Z,97606.38
2023-06-19T02:15:52.445Z,97610.03
2023-06-19T02:18:21.461Z,97609.81
2023-06-19T02:20:54.949Z,97615.78
2023-06-19T02:23:26.164Z,97624.59
2023-06-19T02:25:54.108Z,97612.94
2023-06-19T02:28:25.337Z,97620.25
2023-06-19T02:31:00.221Z,97611.78
2023-06-19T02:33:29.635Z,97602.06
2023-06-19T02:36:05.513Z,97604.34
2023-06-19T02:38:36.890Z,97615.59
2023-06-19T02:41:04.935Z,97610.88
2023-06-19T02:43:35.696Z,97610.09
2023-06-19T02:46:05.355Z,97611.22
2023-06-19T02:48:35.904Z,97612.38
2023-06-19T02:51:03.892Z,97614.31
2023-06-19T02:53:32.078Z,97608.47
2023-06-19T02:56:03.161Z,97604.69
2023-06-19T02:58:35.522Z,97599.78
2023-06-19T03:01:10.006Z,97614.22
2023-06-19T03:03:41.260Z,97612.28
2023-06-19T03:06:16.364Z,97617.41
2023-06-19T03:08:48.341Z,97619.72
2023-06-19T03:11:21.432Z,97620.06
2023-06-19T03:13:59.851Z,97614.94
2023-06-19T03:16:27.948Z,97614.13
2023-06-19T03:19:01.379Z,97608.25
2023-06-19T03:21:32.152Z,97613.75
2023-06-19T03:24:02.893Z,97622.38
2023-06-19T03:26:37.563Z,97627.09
2023-06-19T03:29:07.864Z,97634.88
2023-06-19T03:31:42.872Z,97636.47
2023-06-19T03:34:13.579Z,97638.78
2023-06-19T03:36:41.577Z,97641.53
2023-06-19T03:39:11.491Z,97637.88
2023-06-19T03:41:41.133Z,97649.66
2023-06-19T03:44:11.920Z,97647.25
2023-06-19T03:46:44.291Z,97649.53
2023-06-19T03:49:21.081Z,97647.13
2023-06-19T03:51:50.701Z,97644.41
2023-06-19T03:54:22.699Z,97647.03
2023-06-19T03:56:57.180Z,97652.97
2023-06-19T03:59:25.234Z,97665.00
2023-06-19T04:01:57.996Z,97664.56
2023-06-19T04:04:27.794Z,97665.34
2023-06-19T04:07:00.426Z,97673.94
2023-06-19T04:09:28.574Z,97673.44
2023-06-19T04:11:57.909Z,97673.00
2023-06-19T04:14:31.364Z,97673.34
2023-06-19T04:17:00.758Z,97686.63
2023-06-19T04:19:36.745Z,97676.69
2023-06-19T04:22:07.380Z,97685.13
2023-06-19T04:24:35.510Z,97686.72
2023-06-19T04:27:11.143Z,97694.19
2023-06-19T04:29:48.757Z,97683.41
2023-06-19T04:32:19.405Z,97696.34
2023-06-19T04:34:48.270Z,97699.56
2023-06-19T04:37:20.473Z,97699.91
2023-06-19T04:39:48.821Z,97703.44
2023-06-19T04:42:21.897Z,97707.47
2023-06-19T04:44:50.403Z,97715.56
2023-06-19T04:47:22.871Z,97705.94
2023-06-19T04:49:50.851Z,97711.00
2023-06-19T04:52:29.889Z,97710.19
2023-06-19T04:54:57.862Z,97707.66
2023-06-19T04:57:31.217Z,97708.34
2023-06-19T05:00:05.271Z,97715.56
2023-06-19T05:02:34.076Z,97712.56
2023-06-19T05:05:05.689Z,97704.00
2023-06-19T05:07:33.962Z,97707.53
2023-06-19T05:10:05.107Z,97715.09
2023-06-19T05:12:34.788Z,97712.00
2023-06-19T05:15:03.615Z,97714.06
2023-06-19T05:17:31.784Z,97712.94
2023-06-19T05:20:00.206Z,97716.59
2023-06-19T05:22:28.369Z,97706.06
2023-06-19T05:24:56.559Z,97716.50
2023-06-19T05:27:24.854Z,97713.56
2023-06-19T05:29:54.523Z,97708.38
2023-06-19T05:32:22.944Z,97717.00
2023-06-19T05:34:51.307Z,97726.41
2023-06-19T05:37:19.781Z,97732.44
2023-06-19T05:39:48.041Z,97721.22
2023-06-19T05:42:16.195Z,97721.44
2023-06-19T05:44:44.481Z,97733.94
2023-06-19T05:47:14.105Z,97732.88
2023-06-19T05:49:42.448Z,97722.09
2023-06-19T05:52:10.746Z,97730.59
2023-06-19T05:54:38.845Z,97726.59
2023-06-19T05:57:07.914Z,97739.53
2023-06-19T05:59:36.140Z,97726.91
2023-06-19T06:02:05.135Z,97740.22
2023-06-19T06:04:37.815Z,97725.50
2023-06-19T06:07:06.725Z,97744.16
2023-06-19T06:09:35.391Z,97753.97
2023-06-19T06:12:03.558Z,97752.94
2023-06-19T06:14:32.138Z,97764.03
2023-06-19T06:17:00.739Z,97759.34
2023-06-19T06:19:29.975Z,97758.38
2023-06-19T06:22:01.173Z,97751.28
2023-06-19T06:24:29.440Z,97759.75
2023-06-19T06:26:57.689Z,97759.19
2023-06-19T06:29:25.770Z,97752.34
2023-06-19T06:31:54.140Z,97760.59
2023-06-19T06:34:22.678Z,97763.78
2023-06-19T06:37:05.061Z,97764.16
2023-06-19T06:39:36.194Z,97768.13
2023-06-19T06:42:04.491Z,97775.25
2023-06-19T06:44:33.256Z,97760.44
2023-06-19T06:47:02.359Z,97780.56
2023-06-19T06:49:30.500Z,97778.84
2023-06-19T06:51:58.655Z,97773.13
2023-06-19T06:54:27.130Z,97780.94
2023-06-19T06:56:59.584Z,97782.53
2023-06-19T06:59:28.335Z,97791.00
2023-06-19T07:01:57.706Z,97794.31
2023-06-19T07:04:25.975Z,97789.63
2023-06-19T07:06:54.044Z,97789.81
2023-06-19T07:09:23.436Z,97789.81
2023-06-19T07:11:53.732Z,97793.81
2023-06-19T07:14:24.046Z,97791.84
2023-06-19T07:16:52.493Z,97785.94
2023-06-19T07:19:20.814Z,97793.84
2023-06-19T07:21:49.202Z,97789.28
2023-06-19T07:24:17.517Z,97792.06
2023-06-19T07:26:45.927Z,97801.91
2023-06-19T07:29:14.315Z,97803.56
2023-06-19T07:31:44.641Z,97792.66
2023-06-19T07:34:13.047Z,97790.22
2023-06-19T07:36:41.230Z,97789.97
2023-06-19T07:39:09.649Z,97787.13
2023-06-19T07:41:37.961Z,97782.56
2023-06-19T07:44:06.519Z,97783.00
2023-06-19T07:46:34.817Z,97780.41
2023-06-19T07:49:04.337Z,97783.50
2023-06-19T07:51:33.039Z,97791.88
2023-06-19T07:54:01.308Z,97798.78
2023-06-19T07:56:29.716Z,97807.03
2023-06-19T07:58:58.513Z,97802.19
2023-06-19T08:01:26.621Z,97803.09
2023-06-19T08:03:55.117Z,97803.81
2023-06-19T08:06:24.707Z,97808.75
2023-06-19T08:08:53.417Z,97812.22
2023-06-19T08:11:21.859Z,97810.53
2023-06-19T08:13:50.876Z,97809.91
2023-06-19T08:16:19.709Z,97804.38
2023-06-19T08:18:48.064Z,97818.53
2023-06-19T08:21:17.766Z,97806.91
2023-06-19T08:23:47.253Z,97802.34
2023-06-19T08:26:15.446Z,97803.34
2023-06-19T08:28:44.061Z,97806.78
2023-06-19T08:31:12.511Z,97805.91
2023-06-19T08:33:40.681Z,97798.13
2023-06-19T08:36:08.854Z,97793.69
2023-06-19T08:38:36.953Z,97796.75
2023-06-19T08:41:06.525Z,97791.81
2023-06-19T08:43:34.717Z,97786.44
2023-06-19T08:46:12.380Z,97794.09
2023-06-19T08:48:41.807Z,97788.09
2023-06-19T08:51:10.286Z,97785.16
2023-06-19T08:53:46.962Z,97773.25
2023-06-19T08:56:16.591Z,97779.75
2023-06-19T08:58:44.947Z,97770.69
2023-06-19T09:01:14.608Z,97774.03
2023-06-19T09:03:42.778Z,97774.19
2023-06-19T09:06:11.934Z,97773.13
2023-06-19T09:08:40.220Z,97771.66
2023-06-19T09:11:10.774Z,97778.50
2023-06-19T09:13:40.902Z,97778.03
2023-06-19T09:16:10.294Z,97778.41
2023-06-19T09:18:47.093Z,97779.69
2023-06-19T09:21:19.633Z,97779.31
2023-06-19T09:23:48.949Z,97774.47
2023-06-19T09:26:19.111Z,97776.72
2023-06-19T09:28:51.643Z,97766.16
2023-06-19T09:31:19.697Z,97769.72
2023-06-19T09:33:47.987Z,97778.63
2023-06-19T09:36:16.878Z,97781.19
2023-06-19T09:38:44.957Z,97768.56
2023-06-19T09:41:13.942Z,97762.53
2023-06-19T09:43:46.051Z,97768.75
2023-06-19T09:46:17.363Z,97766.94
2023-06-19T09:48:47.485Z,97771.66
2023-06-19T09:51:20.926Z,97777.31
2023-06-19T09:53:52.155Z,97774.09
2023-06-19T09:56:23.477Z,97774.41
2023-06-19T09:58:54.076Z,97774.22
2023-06-19T10:01:25.020Z,97773.78
2023-06-19T10:04:03.602Z,97773.03
2023-06-19T10:06:33.836Z,97770.25
2023-06-19T10:09:10.115Z,97771.03
2023-06-19T10:11:53.439Z,97772.19
2023-06-19T10:14:21.963Z,97772.91
2023-06-19T10:16:51.548Z,97770.56
2023-06-19T10:19:23.028Z,97771.81
2023-06-19T10:21:55.575Z,97765.22
2023-06-19T10:24:26.194Z,97766.94
2023-06-19T10:27:04.949Z,97765.38
2023-06-19T10:29:41.926Z,97763.94
2023-06-19T10:32:13.922Z,97758.25
2023-06-19T10:34:42.584Z,97755.03
2023-06-19T10:37:22.427Z,97753.44
2023-06-19T10:39:50.502Z,97757.94
2023-06-19T10:42:18.447Z,97744.06
2023-06-19T10:44:46.658Z,97745.66
2023-06-19T10:47:17.426Z,97750.06
2023-06-19T10:49:45.558Z,97745.69
2023-06-19T10:52:13.823Z,97742.25
2023-06-19T10:54:41.849Z,97746.09
2023-06-19T10:57:10.220Z,97738.16
2023-06-19T10:59:40.802Z,97730.22
2023-06-19T11:02:09.006Z,97739.84
2023-06-19T11:04:41.633Z,97741.88
2023-06-19T11:07:10.564Z,97741.84
2023-06-19T11:09:38.684Z,97736.56
2023-06-19T11:12:09.894Z,97736.56
2023-06-19T11:14:41.155Z,97732.97
2023-06-19T11:17:09.607Z,97731.88
2023-06-19T11:19:39.473Z,97725.06
2023-06-19T11:22:09.308Z,97723.09
2023-06-19T11:24:37.663Z,97731.97
2023-06-19T11:27:06.633Z,97728.03
2023-06-19T11:29:36.804Z,97734.41
2023-06-19T11:32:09.518Z,97727.78
2023-06-19T11:34:38.979Z,97723.41
2023-06-19T11:37:15.864Z,97732.88
2023-06-19T11:39:46.332Z,97729.63
2023-06-19T11:42:15.548Z,97728.47
2023-06-19T11:44:56.055Z,97730.50
2023-06-19T11:47:24.902Z,97724.94
2023-06-19T11:49:53.606Z,97724.94
2023-06-19T11:52:23.105Z,97721.69
2023-06-19T11:54:51.413Z,97722.88
2023-06-19T11:57:19.518Z,97712.13
2023-06-19T11:59:48.298Z,97716.13
2023-06-19T12:02:16.609Z,97712.56
2023-06-19T12:04:44.858Z,97705.50
2023-06-19T12:07:13.459Z,97705.84
2023-06-19T12:09:44.318Z,97699.97
2023-06-19T12:12:12.972Z,97699.63
2023-06-19T12:14:41.462Z,97693.66
2023-06-19T12:17:09.750Z,97701.59
2023-06-19T12:19:37.970Z,97701.97
2023-06-19T12:22:06.995Z,97689.69
2023-06-19T12:24:35.184Z,97692.81
2023-06-19T12:27:05.230Z,97700.69
2023-06-19T12:29:33.518Z,97694.28
2023-06-19T12:32:04.133Z,97697.16
2023-06-19T12:34:32.328Z,97690.00
2023-06-19T12:37:00.832Z,97686.81
2023-06-19T12:39:28.911Z,97688.41
2023-06-19T12:41:56.978Z,97685.22
2023-06-19T12:44:26.778Z,97688.03
2023-06-19T12:46:55.175Z,97680.13
2023-06-19T12:49:23.310Z,97687.66
2023-06-19T12:51:53.299Z,97694.81
2023-06-19T12:54:21.614Z,97690.03
2023-06-19T12:56:51.788Z,97693.22
2023-06-19T12:59:20.227Z,97678.88
2023-06-19T13:01:49.875Z,97695.59
2023-06-19T13:04:18.433Z,97690.44
2023-06-19T13:06:46.532Z,97679.28
2023-06-19T13:09:14.926Z,97673.34
2023-06-19T13:11:43.234Z,97679.34
2023-06-19T13:14:11.356Z,97685.25
2023-06-19T13:19:12.085Z,97669.78
2023-06-19T13:21:40.134Z,97668.16
2023-06-19T13:24:08.660Z,97676.91
2023-06-19T13:26:37.267Z,97678.91
2023-06-19T13:29:05.386Z,97674.13
2023-06-19T13:31:35.130Z,97668.59
2023-06-19T13:34:03.279Z,97659.44
2023-06-19T13:36:34.000Z,97657.84
2023-06-19T13:39:03.784Z,97660.63
2023-06-19T13:41:33.711Z,97652.28
2023-06-19T13:44:02.367Z,97643.47
2023-06-19T13:46:33.019Z,97639.53
2023-06-19T13:49:02.095Z,97640.75
2023-06-19T13:51:30.269Z,97640.34
2023-06-19T13:54:00.169Z,97630.00
2023-06-19T13:56:28.399Z,97625.16
2023-06-19T13:58:56.658Z,97622.69
2023-06-19T14:01:26.642Z,97625.47
2023-06-19T14:03:54.990Z,97616.75
2023-06-19T14:06:23.486Z,97610.38
2023-06-19T14:08:51.535Z,97616.75
2023-06-19T14:11:21.558Z,97618.81
2023-06-19T14:13:49.696Z,97615.66
2023-06-19T14:16:18.058Z,97611.69
2023-06-19T14:18:46.136Z,97611.72
2023-06-19T14:21:14.260Z,97612.88
2023-06-19T14:23:44.617Z,97611.25
2023-06-19T14:26:12.938Z,97603.31
2023-06-19T14:28:42.326Z,97594.56
2023-06-19T14:31:10.458Z,97593.41
2023-06-19T14:33:39.144Z,97592.22
2023-06-19T14:36:07.347Z,97587.81
2023-06-19T14:38:36.670Z,97589.75
2023-06-19T14:41:05.035Z,97595.78
2023-06-19T14:43:34.486Z,97581.88
2023-06-19T14:46:06.384Z,97588.63
2023-06-19T14:48:34.466Z,97584.25
2023-06-19T14:51:03.164Z,97574.31
2023-06-19T14:53:31.200Z,97576.31
2023-06-19T14:55:59.291Z,97576.72
2023-06-19T14:58:29.856Z,97577.50
2023-06-19T15:00:59.075Z,97573.53
2023-06-19T15:03:28.719Z,97575.94
2023-06-19T15:05:56.951Z,97565.59
2023-06-19T15:08:25.348Z,97569.56
2023-06-19T15:10:53.654Z,97563.22
2023-06-19T15:13:21.775Z,97563.22
2023-06-19T15:15:51.966Z,97558.84
2023-06-19T15:18:20.309Z,97541.75
2023-06-19T15:20:50.642Z,97545.31
2023-06-19T15:23:25.692Z,97548.09
2023-06-19T15:25:54.987Z,97542.94
2023-06-19T15:28:36.715Z,97539.38
2023-06-19T15:31:14.471Z,97543.72
2023-06-19T15:33:45.268Z,97542.16
2023-06-19T15:36:20.076Z,97539.81
2023-06-19T15:38:54.368Z,97535.78
2023-06-19T15:41:28.408Z,97530.66
2023-06-19T15:44:06.852Z,97536.19
2023-06-19T15:46:41.365Z,97537.38
2023-06-19T15:49:21.455Z,97535.78
2023-06-19T15:51:51.058Z,97539.78
2023-06-19T15:54:19.130Z,97546.91
2023-06-19T15:56:47.335Z,97542.59
2023-06-19T15:59:16.206Z,97546.13
2023-06-19T16:01:44.253Z,97545.72
2023-06-19T16:04:14.259Z,97548.13
2023-06-19T16:06:53.652Z,97543.75
2023-06-19T16:09:31.114Z,97553.69
2023-06-19T16:12:02.849Z,97550.91
2023-06-19T16:14:36.324Z,97548.50
2023-06-19T16:17:07.830Z,97543.31
2023-06-19T16:19:42.608Z,97551.63
2023-06-19T16:22:12.328Z,97546.00
2023-06-19T16:24:45.500Z,97546.00
2023-06-19T16:27:13.662Z,97532.94
2023-06-19T16:29:55.605Z,97535.28
2023-06-19T16:32:33.898Z,97536.09
2023-06-19T16:35:17.404Z,97531.31
2023-06-19T16:37:47.552Z,97532.50
2023-06-19T16:40:20.072Z,97538.88
2023-06-19T16:42:52.470Z,97543.59
2023-06-19T16:45:28.031Z,97542.75
2023-06-19T16:47:56.430Z,97550.66
2023-06-19T16:50:32.749Z,97548.69
2023-06-19T16:53:06.799Z,97558.19
2023-06-19T16:55:39.937Z,97565.72
2023-06-19T16:58:09.078Z,97568.84
2023-06-19T17:00:51.100Z,97569.59
2023-06-19T17:03:24.624Z,97566.34
2023-06-19T17:05:54.590Z,97564.31
2023-06-19T17:08:28.447Z,97566.44
2023-06-19T17:11:04.642Z,97567.09
2023-06-19T17:13:37.308Z,97556.66
2023-06-19T17:16:07.413Z,97550.88
2023-06-19T17:18:42.417Z,97545.25
2023-06-19T17:21:17.561Z,97549.88
2023-06-19T17:23:56.806Z,97548.06
2023-06-19T17:26:32.150Z,97548.81
2023-06-19T17:29:10.452Z,97544.34
2023-06-19T17:31:42.866Z,97548.69
2023-06-19T17:34:15.131Z,97543.38
2023-06-19T17:36:55.422Z,97539.03
2023-06-19T17:39:34.204Z,97547.69
2023-06-19T17:42:06.324Z,97551.63
2023-06-19T17:44:34.544Z,97550.41
2023-06-19T17:47:03.009Z,97553.59
2023-06-19T17:49:31.101Z,97561.16
2023-06-19T17:51:59.341Z,97572.69
2023-06-19T17:54:27.315Z,97572.72
2023-06-19T17:56:55.252Z,97569.53
2023-06-19T17:59:24.777Z,97573.53
2023-06-19T18:01:53.100Z,97575.41
2023-06-19T18:04:21.107Z,97577.28
2023-06-19T18:06:49.457Z,97579.16
2023-06-19T18:09:17.513Z,97576.63
2023-06-19T18:11:46.395Z,97574.59
2023-06-19T18:14:14.695Z,97573.44
2023-06-19T18:16:44.209Z,97580.03
2023-06-19T18:19:12.281Z,97581.56
2023-06-19T18:21:41.264Z,97576.03
2023-06-19T18:24:09.541Z,97576.47
2023-06-19T18:26:37.459Z,97582.47
2023-06-19T18:29:05.498Z,97585.56
2023-06-19T18:31:33.479Z,97579.59
2023-06-19T18:34:03.260Z,97581.06
2023-06-19T18:36:31.388Z,97580.72
2023-06-19T18:38:59.466Z,97575.91
2023-06-19T18:41:27.578Z,97573.56
2023-06-19T18:43:55.743Z,97575.53
2023-06-19T18:46:24.028Z,97578.28
2023-06-19T18:48:52.253Z,97573.13
2023-06-19T18:51:21.717Z,97571.16
2023-06-19T18:53:50.209Z,97566.44
2023-06-19T18:56:27.373Z,97572.72
2023-06-19T18:58:55.387Z,97566.31
2023-06-19T19:01:23.427Z,97562.75
2023-06-19T19:03:51.701Z,97566.25
2023-06-19T19:06:21.108Z,97564.59
2023-06-19T19:08:49.292Z,97565.66
2023-06-19T19:11:17.290Z,97567.94
2023-06-19T19:13:45.424Z,97569.78
2023-06-19T19:16:13.503Z,97565.38
2023-06-19T19:18:41.760Z,97570.84
2023-06-19T19:21:09.721Z,97577.84
2023-06-19T19:23:39.240Z,97572.63
2023-06-19T19:26:08.121Z,97575.38
2023-06-19T19:28:36.437Z,97576.56
2023-06-19T19:31:04.626Z,97576.09
2023-06-19T19:33:32.643Z,97573.63
2023-06-19T19:36:02.302Z,97581.75
2023-06-19T19:38:30.349Z,97580.72
2023-06-19T19:41:00.054Z,97580.94
2023-06-19T19:43:28.315Z,97577.31
2023-06-19T19:45:56.463Z,97593.00
2023-06-19T19:48:24.466Z,97586.69
2023-06-19T19:50:52.509Z,97584.72
2023-06-19T19:53:20.458Z,97593.31
2023-06-19T19:55:52.324Z,97593.69
2023-06-19T19:58:22.908Z,97603.47
2023-06-19T20:00:51.156Z,97609.44
2023-06-19T20:03:19.321Z,97610.25
2023-06-19T20:05:47.453Z,97624.41
2023-06-19T20:08:15.479Z,97629.06
2023-06-19T20:10:44.573Z,97624.16
2023-06-19T20:13:53.343Z,97635.84
2023-06-19T20:16:37.673Z,97634.03
2023-06-19T20:19:17.331Z,97629.94
2023-06-19T20:21:50.133Z,97627.44
2023-06-19T20:24:23.700Z,97634.59
2023-06-19T20:26:52.285Z,97631.22
2023-06-19T20:29:25.032Z,97618.94
2023-06-19T20:32:03.263Z,97620.28
2023-06-19T20:34:36.072Z,97610.34
2023-06-19T20:37:04.272Z,97608.81
2023-06-19T20:39:40.116Z,97606.94
2023-06-19T20:42:10.689Z,97613.34
2023-06-19T20:44:41.298Z,97603.13
2023-06-19T20:47:10.919Z,97606.66
2023-06-19T20:49:38.918Z,97601.16
2023-06-19T20:52:11.115Z,97613.69
2023-06-19T20:54:41.133Z,97608.81
2023-06-19T20:57:12.257Z,97611.03
2023-06-19T20:59:40.224Z,97617.28
2023-06-19T21:02:14.500Z,97609.72
2023-06-19T21:04:47.171Z,97612.38
2023-06-19T21:07:15.559Z,97619.44
2023-06-19T21:09:47.922Z,97615.88
2023-06-19T21:15:14.527Z,97616.16
2023-06-19T21:18:16.827Z,97622.38
2023-06-19T21:20:46.864Z,97619.88
2023-06-19T21:23:18.840Z,97613.13
2023-06-19T21:25:49.478Z,97611.88
2023-06-19T21:28:34.214Z,97603.97
2023-06-19T21:31:06.272Z,97598.72
2023-06-19T21:33:35.733Z,97612.19
2023-06-19T21:36:04.042Z,97616.34
2023-06-19T21:38:39.934Z,97622.72
2023-06-19T21:41:11.763Z,97623.78
2023-06-19T21:43:39.782Z,97615.88
2023-06-19T21:46:11.577Z,97606.72
2023-06-19T21:51:55.200Z,97589.16
2023-06-19T21:54:25.060Z,97584.88
2023-06-19T21:56:54.818Z,97586.03
2023-06-19T21:59:27.784Z,97582.84
2023-06-19T22:02:00.196Z,97582.84
2023-06-19T22:04:30.869Z,97572.53
2023-06-19T22:10:00.304Z,97568.78
2023-06-19T22:12:45.915Z,97567.84
2023-06-19T22:15:18.243Z,97560.38
2023-06-19T22:17:48.005Z,97553.63
2023-06-19T22:20:32.762Z,97549.28
2023-06-19T22:26:00.542Z,97546.88
2023-06-19T22:28:39.899Z,97546.88
2023-06-19T22:31:30.580Z,97544.47
2023-06-19T22:34:11.855Z,97545.19
2023-06-19T22:36:59.089Z,97551.03
2023-06-19T22:39:33.775Z,97542.69
2023-06-19T22:42:15.411Z,97540.66
2023-06-19T22:45:00.361Z,97536.56
2023-06-19T22:47:33.300Z,97526.41
2023-06-19T22:50:12.100Z,97530.31
2023-06-19T22:52:51.183Z,97526.84
2023-06-19T22:55:30.168Z,97522.94
2023-06-19T22:58:04.499Z,97519.75
2023-06-19T23:00:48.036Z,97525.84
2023-06-19T23:03:20.844Z,97522.66
2023-06-19T23:06:26.792Z,97522.56
2023-06-19T23:15:18.472Z,97518.91
2023-06-19T23:18:10.524Z,97526.41
2023-06-19T23:21:02.862Z,97520.16
2023-06-19T23:23:51.100Z,97516.00
2023-06-19T23:26:49.009Z,97507.19
2023-06-19T23:29:43.789Z,97507.19
2023-06-19T23:32:29.729Z,97496.91
2023-06-19T23:41:50.437Z,97494.50
2023-06-19T23:44:46.088Z,97501.94
2023-06-19T23:47:30.977Z,97505.16
2023-06-19T23:50:16.865Z,97486.94
2023-06-19T23:53:10.272Z,97490.38
2023-06-19T23:56:07.405Z,97490.84
2023-06-19T23:58:58.022Z,97499.22
